Time;durP1;ratioP1;P1;durP2;ratioP2;P2;SDS_P1;SDS_P2;PMS_P1;PMS_P2;Temp;Humidity;BMP_temperature;BMP_pressure;BME280_temperature;BME280_humidity;BME280_pressure;Samples;Min_cycle;Max_cycle;Signal;HPM_P1;HPM_P2
2023/09/24 00:00:59;;;;;;;15.50;11.30;;;;;;;-128.00;-1.00;-1.00;105672;1251;1004296;-80
2023/09/24 00:03:46;;;;;;;23.60;15.80;;;;;;;-128.00;-1.00;-1.00;105725;1250;1047082;-80
2023/09/24 00:06:14;;;;;;;15.50;12.00;;;;;;;-128.00;-1.00;-1.00;105653;1251;1004039;-80
2023/09/24 00:08:40;;;;;;;14.50;11.30;;;;;;;-128.00;-1.00;-1.00;105579;1251;1004359;-80
2023/09/24 00:11:08;;;;;;;16.60;11.40;;;;;;;-128.00;-1.00;-1.00;105588;1251;1004952;-81
2023/09/24 00:13:35;;;;;;;13.70;10.60;;;;;;;-128.00;-1.00;-1.00;105581;1251;1004509;-80
2023/09/24 00:16:09;;;;;;;15.90;10.40;;;;;;;-128.00;-1.00;-1.00;105595;1251;1003714;-80
2023/09/24 00:18:37;;;;;;;14.20;11.00;;;;;;;-128.00;-1.00;-1.00;105441;1253;1062072;-80
2023/09/24 00:21:04;;;;;;;29.70;23.90;;;;;;;-128.00;-1.00;-1.00;105556;1251;1003682;-80
2023/09/24 00:23:30;;;;;;;22.40;18.20;;;;;;;-128.00;-1.00;-1.00;105410;1253;1004863;-80
2023/09/24 00:25:57;;;;;;;31.40;22.30;;;;;;;-128.00;-1.00;-1.00;105601;1251;1004448;-80
2023/09/24 00:28:24;;;;;;;34.30;26.20;;;;;;;-128.00;-1.00;-1.00;105470;1252;1005190;-80
2023/09/24 00:30:55;;;;;;;21.70;15.20;;;;;;;-128.00;-1.00;-1.00;105381;1251;1004313;-80
2023/09/24 00:33:22;;;;;;;21.90;12.50;;;;;;;-128.00;-1.00;-1.00;105625;1251;1059660;-80
2023/09/24 00:35:48;;;;;;;27.60;23.70;;;;;;;-128.00;-1.00;-1.00;105444;1251;1005125;-80
2023/09/24 00:38:15;;;;;;;28.30;24.80;;;;;;;-128.00;-1.00;-1.00;105557;1251;1004777;-80
2023/09/24 00:40:41;;;;;;;18.20;13.80;;;;;;;-128.00;-1.00;-1.00;105609;1251;1004715;-80
2023/09/24 00:43:27;;;;;;;19.30;15.00;;;;;;;-128.00;-1.00;-1.00;105606;1251;1004949;-81
2023/09/24 00:45:58;;;;;;;16.80;12.20;;;;;;;-128.00;-1.00;-1.00;105604;1251;1057833;-80
2023/09/24 00:48:29;;;;;;;13.50;9.90;;;;;;;-128.00;-1.00;-1.00;105617;1253;1059826;-80
2023/09/24 00:51:02;;;;;;;19.10;13.60;;;;;;;-128.00;-1.00;-1.00;105609;1250;1045255;-80
2023/09/24 00:53:29;;;;;;;14.20;10.30;;;;;;;-128.00;-1.00;-1.00;105672;1250;1046105;-80
2023/09/24 00:55:56;;;;;;;12.80;10.00;;;;;;;-128.00;-1.00;-1.00;105647;1251;1004875;-80
2023/09/24 00:58:30;;;;;;;12.10;8.60;;;;;;;;;;105795;1289;600095;-80
2023/09/24 01:00:57;;;;;;;12.20;9.50;;;;;;;;;;108412;1265;57264;-80
2023/09/24 01:03:23;;;;;;;16.90;8.10;;;;;;;;;;108511;1265;57245;-80
2023/09/24 01:05:50;;;;;;;11.20;9.30;;;;;;;;;;108453;1265;56793;-80
2023/09/24 01:08:20;;;;;;;12.30;8.70;;;;;;;;;;108416;1265;58565;-80
2023/09/24 01:10:49;;;;;;;14.30;8.80;;;;;;;;;;108436;1265;60431;-80
2023/09/24 01:13:19;;;;;;;10.90;8.60;;;;;;;;;;108651;1260;173629;-81
2023/09/24 01:15:55;;;;;;;13.20;7.00;;;;;;;;;;108704;1260;57599;-81
2023/09/24 01:18:21;;;;;;;11.50;7.40;;;;;;;;;;108795;1260;59576;-81
2023/09/24 01:20:48;;;;;;;11.10;7.90;;;;;;;;;;108782;1260;56820;-81
2023/09/24 01:23:14;;;;;;;16.00;8.20;;;;;;;;;;108745;1260;57613;-81
2023/09/24 01:25:42;;;;;;;10.80;7.10;;;;;;;;;;108758;1260;57386;-80
2023/09/24 01:28:09;;;;;;;11.90;7.00;;;;;;;;;;108780;1260;57486;-80
2023/09/24 01:30:36;;;;;;;8.20;6.50;;;;;;;;;;108773;1261;60223;-81
2023/09/24 01:33:02;;;;;;;11.10;6.50;;;;;;;;;;108767;1260;59309;-80
2023/09/24 01:35:29;;;;;;;9.90;6.40;;;;;;;;;;108781;1260;59872;-80
2023/09/24 01:38:04;;;;;;;23.90;6.90;;;;;;;;;;108774;1260;58080;-80
2023/09/24 01:40:30;;;;;;;9.60;6.60;;;;;;;;;;108802;1260;57688;-81
2023/09/24 01:43:00;;;;;;;8.80;6.10;;;;;;;;;;108668;1260;60202;-80
2023/09/24 01:45:28;;;;;;;7.10;5.60;;;;;;;;;;108775;1260;57564;-80
2023/09/24 01:47:55;;;;;;;8.70;6.00;;;;;;;;;;108801;1260;58928;-81
2023/09/24 01:50:26;;;;;;;6.20;4.90;;;;;;;;;;108756;1260;57537;-80
2023/09/24 01:52:54;;;;;;;10.40;4.90;;;;;;;;;;108781;1260;57650;-81
2023/09/24 01:55:21;;;;;;;8.50;4.90;;;;;;;;;;108797;1260;58752;-80
2023/09/24 01:57:48;;;;;;;8.30;5.00;;;;;;;;;;108785;1260;57908;-80
2023/09/24 02:00:23;;;;;;;7.00;5.00;;;;;;;;;;109290;1252;57482;-81
2023/09/24 02:02:50;;;;;;;7.40;4.80;;;;;;;;;;109286;1252;57403;-81
2023/09/24 02:05:17;;;;;;;7.70;4.40;;;;;;;;;;109375;1254;58074;-81
2023/09/24 02:07:43;;;;;;;6.00;3.90;;;;;;;;;;109391;1253;60340;-81
2023/09/24 02:10:12;;;;;;;6.90;4.50;;;;;;;;;;109388;1252;58088;-81
2023/09/24 02:12:38;;;;;;;7.60;4.90;;;;;;;;;;109373;1252;59605;-81
2023/09/24 02:15:09;;;;;;;6.60;4.50;;;;;;;;;;109255;1251;58093;-81
2023/09/24 02:17:35;;;;;;;9.40;5.80;;;;;;;;;;109366;1252;57435;-80
2023/09/24 02:20:10;;;;;;;6.00;4.40;;;;;;;;;;109331;1254;57471;-80
2023/09/24 02:22:37;;;;;;;18.00;8.10;;;;;;;;;;109316;1253;58970;-81
2023/09/24 02:25:05;;;;;;;18.80;6.00;;;;;;;;;;109337;1252;57699;-81
2023/09/24 02:27:34;;;;;;;15.60;7.20;;;;;;;;;;109312;1252;57414;-81
2023/09/24 02:30:00;;;;;;;11.40;5.00;;;;;;;;;;109341;1253;57407;-80
2023/09/24 02:32:29;;;;;;;18.40;6.80;;;;;;;;;;109363;1253;60417;-80
2023/09/24 02:34:55;;;;;;;7.50;4.20;;;;;;;;;;109383;1253;58346;-81
2023/09/24 02:37:22;;;;;;;9.10;5.00;;;;;;;;;;109333;1252;57503;-80
2023/09/24 02:39:49;;;;;;;8.20;4.90;;;;;;;;;;109306;1253;57791;-81
2023/09/24 02:42:15;;;;;;;6.90;3.80;;;;;;;;;;109404;1252;57398;-81
2023/09/24 02:44:43;;;;;;;5.00;3.70;;;;;;;;;;109336;1252;60156;-80
2023/09/24 02:47:09;;;;;;;11.80;5.60;;;;;;;;;;109440;1253;58463;-80
2023/09/24 02:49:36;;;;;;;10.00;4.70;;;;;;;;;;109357;1253;58073;-81
2023/09/24 02:52:02;;;;;;;6.00;3.30;;;;;;;;;;109290;1252;57379;-81
2023/09/24 02:54:28;;;;;;;3.70;2.70;;;;;;;;;;109337;1252;57600;-81
2023/09/24 02:56:56;;;;;;;8.60;3.00;;;;;;;;;;109332;1252;57476;-80
2023/09/24 02:59:22;;;;;;;10.20;3.10;;;;;;;;;;109296;1253;58348;-81
2023/09/24 03:01:48;;;;;;;11.40;3.60;;;;;;;;;;109267;1253;57514;-81
2023/09/24 03:04:18;;;;;;;3.70;2.60;;;;;;;;;;109273;1252;57983;-80
2023/09/24 03:06:45;;;;;;;3.40;2.30;;;;;;;;;;109346;1253;57627;-80
2023/09/24 03:09:12;;;;;;;7.00;3.10;;;;;;;;;;109346;1252;60381;-81
2023/09/24 03:11:39;;;;;;;3.70;2.80;;;;;;;;;;109394;1252;59472;-81
2023/09/24 03:14:05;;;;;;;4.20;2.90;;;;;;;;;;109322;1253;57440;-81
2023/09/24 03:16:32;;;;;;;3.50;2.80;;;;;;;;;;109359;1252;58000;-81
2023/09/24 03:19:01;;;;;;;4.60;3.00;;;;;;;;;;109332;1252;57426;-80
2023/09/24 03:21:27;;;;;;;4.00;2.80;;;;;;;;;;109318;1253;59025;-81
2023/09/24 03:23:53;;;;;;;5.60;3.00;;;;;;;;;;109335;1251;57438;-81
2023/09/24 03:26:20;;;;;;;4.40;3.40;;;;;;;;;;109326;1253;57797;-80
2023/09/24 03:28:48;;;;;;;6.90;3.70;;;;;;;;;;109369;1252;57516;-81
2023/09/24 03:31:14;;;;;;;5.70;3.00;;;;;;;;;;109354;1252;58115;-80
2023/09/24 03:33:41;;;;;;;4.40;3.20;;;;;;;;;;109328;1252;60560;-83
2023/09/24 03:36:08;;;;;;;4.00;2.90;;;;;;;;;;109328;1253;57524;-81
2023/09/24 03:38:35;;;;;;;6.70;3.00;;;;;;;;;;109337;1252;59409;-80
2023/09/24 03:41:05;;;;;;;6.50;3.40;;;;;;;;;;109337;1254;57900;-81
2023/09/24 03:43:31;;;;;;;5.90;3.10;;;;;;;;;;109321;1253;57635;-81
2023/09/24 03:45:58;;;;;;;3.60;3.00;;;;;;;;;;109386;1251;57958;-81
2023/09/24 03:48:24;;;;;;;6.80;3.20;;;;;;;;;;109373;1253;57364;-81
2023/09/24 03:50:50;;;;;;;5.80;3.40;;;;;;;;;;109320;1252;57510;-81
2023/09/24 03:53:18;;;;;;;5.00;2.80;;;;;;;;;;109317;1253;57369;-80
2023/09/24 03:55:48;;;;;;;6.60;4.10;;;;;;;;;;109284;1253;58006;-80
2023/09/24 03:58:17;;;;;;;4.40;3.50;;;;;;;;;;109276;1252;59000;-81
2023/09/24 04:00:44;;;;;;;5.20;3.70;;;;;;;;;;109309;1253;58574;-80
2023/09/24 04:03:12;;;;;;;4.10;3.00;;;;;;;;;;109284;1252;57712;-80
2023/09/24 04:05:38;;;;;;;4.30;3.20;;;;;;;;;;109295;1253;58052;-80
2023/09/24 04:08:04;;;;;;;4.90;3.50;;;;;;;;;;109348;1252;58065;-80
2023/09/24 04:10:32;;;;;;;6.20;3.70;;;;;;;;;;109343;1252;57336;-80
2023/09/24 04:13:00;;;;;;;4.30;3.70;;;;;;;;;;109325;1251;58074;-80
2023/09/24 04:15:27;;;;;;;6.80;4.10;;;;;;;;;;109323;1254;59680;-81
2023/09/24 04:17:56;;;;;;;5.00;4.20;;;;;;;;;;109341;1254;58039;-81
2023/09/24 04:20:22;;;;;;;5.20;3.80;;;;;;;;;;109260;1253;57798;-80
2023/09/24 04:22:49;;;;;;;7.00;3.70;;;;;;;;;;109369;1253;57385;-80
2023/09/24 04:25:17;;;;;;;4.30;3.70;;;;;;;;;;109344;1256;57463;-81
2023/09/24 04:27:43;;;;;;;5.10;3.40;;;;;;;;;;109358;1252;60847;-81
2023/09/24 04:30:16;;;;;;;4.20;3.60;;;;;;;;;;109353;1252;58082;-81
2023/09/24 04:32:53;;;;;;;5.30;4.10;;;;;;;;;;109305;1253;57803;-81
2023/09/24 04:35:22;;;;;;;7.20;4.20;;;;;;;;;;109379;1252;58842;-80
2023/09/24 04:37:49;;;;;;;8.30;3.60;;;;;;;;;;109277;1252;59315;-81
2023/09/24 04:40:16;;;;;;;5.10;4.10;;;;;;;;;;109322;1252;60221;-80
2023/09/24 04:42:42;;;;;;;5.20;4.40;;;;;;;;;;109326;1253;57901;-80
2023/09/24 04:45:10;;;;;;;7.00;5.30;;;;;;;;;;109317;1252;57473;-80
2023/09/24 04:47:37;;;;;;;7.20;5.00;;;;;;;;;;109474;1251;58761;-80
2023/09/24 04:50:04;;;;;;;10.40;9.20;;;;;;;;;;109279;1253;57965;-81
2023/09/24 04:52:31;;;;;;;13.40;11.20;;;;;;;;;;109260;1253;59710;-80
2023/09/24 04:54:57;;;;;;;11.60;9.20;;;;;;;;;;109244;1253;58034;-80
2023/09/24 04:57:24;;;;;;;10.50;8.50;;;;;;;;;;109273;1252;57425;-80
2023/09/24 04:59:53;;;;;;;10.90;8.90;;;;;;;;;;109257;1253;58016;-80
2023/09/24 05:02:21;;;;;;;10.10;9.10;;;;;;;;;;109277;1253;58707;-80
2023/09/24 05:04:48;;;;;;;12.90;9.40;;;;;;;;;;109283;1253;58676;-80
2023/09/24 05:07:14;;;;;;;27.50;18.10;;;;;;;;;;109296;1252;58536;-80
2023/09/24 05:09:40;;;;;;;10.70;8.20;;;;;;;;;;109320;1253;58414;-80
2023/09/24 05:12:07;;;;;;;10.10;8.40;;;;;;;;;;109287;1253;58838;-80
2023/09/24 05:14:33;;;;;;;9.30;7.20;;;;;;;;;;109349;1253;58128;-81
2023/09/24 05:17:00;;;;;;;7.80;4.90;;;;;;;;;;109177;1254;58883;-80
2023/09/24 05:19:27;;;;;;;7.30;5.80;;;;;;;;;;109177;1252;58161;-80
2023/09/24 05:21:53;;;;;;;6.10;5.20;;;;;;;;;;109238;1253;58954;-81
2023/09/24 05:24:20;;;;;;;10.50;5.40;;;;;;;;;;109310;1252;58870;-81
2023/09/24 05:26:46;;;;;;;8.60;5.20;;;;;;;;;;109337;1254;58245;-80
2023/09/24 05:29:12;;;;;;;9.30;4.10;;;;;;;;;;109300;1252;58317;-81
2023/09/24 05:31:39;;;;;;;8.70;4.40;;;;;;;;;;109309;1252;58362;-80
2023/09/24 05:34:06;;;;;;;5.70;4.50;;;;;;;;;;109290;1253;58330;-80
2023/09/24 05:36:32;;;;;;;4.80;4.00;;;;;;;;;;109321;1253;58387;-80
2023/09/24 05:38:58;;;;;;;7.10;5.40;;;;;;;;;;109319;1254;58914;-80
2023/09/24 05:41:25;;;;;;;5.40;4.60;;;;;;;;;;109307;1253;58842;-81
2023/09/24 05:43:54;;;;;;;6.70;3.70;;;;;;;;;;109298;1254;58737;-81
2023/09/24 05:46:20;;;;;;;;;;;;;;;;;;109350;1251;58469;-81
2023/09/24 05:48:46;;;;;;;5.80;4.80;;;;;;;;;;109277;1253;58219;-81
2023/09/24 05:51:13;;;;;;;7.60;4.60;;;;;;;;;;109293;1253;58167;-80
2023/09/24 05:53:39;;;;;;;7.60;4.70;;;;;;;;;;109264;1253;58362;-81
2023/09/24 05:56:05;;;;;;;6.40;4.90;;;;;;;;;;109296;1256;58795;-80
2023/09/24 05:58:32;;;;;;;10.10;5.30;;;;;;;;;;109291;1253;58602;-81
2023/09/24 06:00:58;;;;;;;7.80;6.90;;;;;;;;;;109306;1253;59128;-80
2023/09/24 06:03:26;;;;;;;10.30;8.50;;;;;;;;;;109300;1252;58225;-80
2023/09/24 06:05:53;;;;;;;8.60;6.50;;;;;;;;;;109247;1252;59970;-81
2023/09/24 06:08:20;;;;;;;10.90;7.10;;;;;;;;;;109328;1252;58199;-81
2023/09/24 06:10:46;;;;;;;11.40;7.30;;;;;;;;;;109395;1253;58312;-81
2023/09/24 06:13:16;;;;;;;7.40;5.70;;;;;;;;;;109302;1253;58337;-81
2023/09/24 06:15:42;;;;;;;11.90;5.90;;;;;;;;;;109284;1253;58304;-80
2023/09/24 06:18:09;;;;;;;9.90;6.30;;;;;;;;;;109268;1253;60455;-81
2023/09/24 06:20:39;;;;;;;7.90;5.60;;;;;;;;;;109309;1252;58681;-80
2023/09/24 06:23:05;;;;;;;7.30;6.40;;;;;;;;;;109306;1252;58335;-80
2023/09/24 06:25:32;;;;;;;6.90;5.40;;;;;;;;;;109262;1253;61132;-81
2023/09/24 06:27:58;;;;;;;8.70;5.90;;;;;;;;;;109299;1253;58634;-80
2023/09/24 06:30:25;;;;;;;34.70;19.70;;;;;;;;;;109277;1253;60367;-80
2023/09/24 06:32:51;;;;;;;24.90;12.90;;;;;;;;;;109293;1253;58254;-80
2023/09/24 06:35:18;;;;;;;18.90;11.50;;;;;;;;;;109262;1253;58863;-81
2023/09/24 06:37:44;;;;;;;14.40;7.30;;;;;;;;;;109265;1252;58218;-81
2023/09/24 06:40:11;;;;;;;12.50;7.60;;;;;;;;;;109306;1253;58165;-80
2023/09/24 06:42:37;;;;;;;12.60;7.60;;;;;;;;;;109287;1253;58312;-81
2023/09/24 06:45:08;;;;;;;15.60;8.50;;;;;;;;;;109288;1253;58196;-80
2023/09/24 06:47:35;;;;;;;10.70;7.20;;;;;;;;;;109404;1251;58200;-80
2023/09/24 06:50:01;;;;;;;11.40;7.40;;;;;;;;;;109323;1253;61053;-81
2023/09/24 06:52:30;;;;;;;10.20;7.40;;;;;;;;;;109264;1253;58873;-81
2023/09/24 06:54:57;;;;;;;9.30;6.60;;;;;;;;;;109262;1253;60418;-81
2023/09/24 06:57:23;;;;;;;20.30;8.50;;;;;;;;;;109264;1253;58223;-80
2023/09/24 06:59:49;;;;;;;11.70;7.50;;;;;;;;;;109294;1253;58434;-81
2023/09/24 07:02:16;;;;;;;9.50;6.60;;;;;;;;;;109300;1253;58171;-80
2023/09/24 07:04:43;;;;;;;17.60;9.90;;;;;;;;;;109297;1254;58973;-80
2023/09/24 07:07:10;;;;;;;17.10;9.70;;;;;;;;;;109253;1253;59760;-81
2023/09/24 07:09:36;;;;;;;12.80;8.00;;;;;;;;;;109337;1253;58852;-80
2023/09/24 07:12:04;;;;;;;8.00;6.00;;;;;;;;;;109282;1253;58271;-81
2023/09/24 07:14:31;;;;;;;7.00;6.00;;;;;;;;;;109303;1253;61978;-81
2023/09/24 07:16:57;;;;;;;8.10;6.30;;;;;;;;;;109243;1253;58811;-81
2023/09/24 07:19:24;;;;;;;11.00;6.80;;;;;;;;;;109308;1253;58992;-80
2023/09/24 07:21:52;;;;;;;10.30;6.70;;;;;;;;;;109330;1252;58488;-81
2023/09/24 07:24:18;;;;;;;14.40;9.60;;;;;;;;;;109285;1255;58119;-81
2023/09/24 07:26:45;;;;;;;11.00;7.60;;;;;;;;;;109306;1252;58409;-81
2023/09/24 07:29:11;;;;;;;17.80;10.40;;;;;;;;;;109334;1253;59264;-80
2023/09/24 07:31:37;;;;;;;9.40;6.40;;;;;;;;;;109347;1253;58810;-81
2023/09/24 07:34:05;;;;;;;8.90;7.00;;;;;;;;;;109336;1253;58668;-81
2023/09/24 07:36:31;;;;;;;9.50;4.10;;;;;;;;;;109331;1253;58202;-81
2023/09/24 07:38:59;;;;;;;5.00;3.50;;;;;;;;;;109338;1256;61075;-80
2023/09/24 07:41:25;;;;;;;6.30;3.80;;;;;;;;;;109246;1254;59083;-81
2023/09/24 07:43:53;;;;;;;4.70;4.20;;;;;;;;;;109333;1253;58256;-81
2023/09/24 07:46:19;;;;;;;4.70;3.40;;;;;;;;;;109390;1250;58384;-80
2023/09/24 07:48:49;;;;;;;8.20;5.90;;;;;;;;;;109370;1251;58244;-80
2023/09/24 07:51:18;;;;;;;4.90;3.90;;;;;;;;;;109273;1253;62433;-80
2023/09/24 07:53:45;;;;;;;5.30;3.80;;;;;;;;;;109238;1253;58466;-81
2023/09/24 07:56:12;;;;;;;4.30;3.20;;;;;;;;;;109265;1253;58779;-81
2023/09/24 07:58:38;;;;;;;4.90;4.40;;;;;;;;;;109283;1254;58606;-81
2023/09/24 08:01:06;;;;;;;9.50;5.90;;;;;;;;;;109261;1255;59130;-81
2023/09/24 08:03:33;;;;;;;5.40;4.20;;;;;;;;;;109284;1252;62128;-80
2023/09/24 08:05:59;;;;;;;6.90;3.50;;;;;;;;;;109330;1255;58788;-81
2023/09/24 08:08:26;;;;;;;4.10;2.80;;;;;;;;;;109231;1253;60419;-80
2023/09/24 08:10:52;;;;;;;5.20;3.20;;;;;;;;;;109307;1253;58263;-80
2023/09/24 08:13:19;;;;;;;4.10;3.10;;;;;;;;;;109403;1253;58266;-80
2023/09/24 08:15:46;;;;;;;5.20;3.20;;;;;;;;;;109373;1254;61089;-81
2023/09/24 08:18:12;;;;;;;3.90;3.50;;;;;;;;;;109338;1254;58779;-80
2023/09/24 08:20:40;;;;;;;3.70;2.70;;;;;;;;;;109294;1254;58143;-81
2023/09/24 08:23:06;;;;;;;3.60;2.80;;;;;;;;;;109291;1254;58247;-81
2023/09/24 08:25:32;;;;;;;5.30;3.10;;;;;;;;;;109325;1253;58290;-81
2023/09/24 08:27:59;;;;;;;6.50;3.70;;;;;;;;;;109328;1254;58461;-80
2023/09/24 08:30:28;;;;;;;4.00;3.60;;;;;;;;;;109327;1252;58728;-81
2023/09/24 08:32:55;;;;;;;7.70;3.60;;;;;;;;;;109296;1254;60793;-81
2023/09/24 08:35:22;;;;;;;4.60;4.00;;;;;;;;;;109243;1252;58300;-81
2023/09/24 08:37:49;;;;;;;5.40;4.20;;;;;;;;;;109358;1254;58371;-81
2023/09/24 08:40:18;;;;;;;4.50;3.60;;;;;;;;;;109309;1256;61380;-81
2023/09/24 08:42:45;;;;;;;8.30;3.20;;;;;;;;;;109351;1253;58985;-81
2023/09/24 08:45:13;;;;;;;12.60;4.30;;;;;;;;;;109357;1252;58763;-81
2023/09/24 08:47:40;;;;;;;14.50;4.30;;;;;;;;;;109406;1251;58324;-80
2023/09/24 08:50:07;;;;;;;6.40;3.00;;;;;;;;;;109305;1253;58778;-81
2023/09/24 08:52:33;;;;;;;5.70;4.20;;;;;;;;;;109241;1254;61522;-81
2023/09/24 08:55:00;;;;;;;6.60;3.80;;;;;;;;;;109256;1253;58642;-80
2023/09/24 08:57:26;;;;;;;5.20;3.60;;;;;;;;;;109201;1254;58678;-81
2023/09/24 08:59:53;;;;;;;5.40;3.70;;;;;;;;;;109300;1254;58486;-81
2023/09/24 09:02:19;;;;;;;6.20;4.20;;;;;;;;;;109276;1254;58871;-80
2023/09/24 09:04:49;;;;;;;6.00;4.40;;;;;;;;;;109303;1253;58295;-81
2023/09/24 09:07:16;;;;;;;4.70;3.50;;;;;;;;;;109310;1254;58258;-80
2023/09/24 09:09:53;;;;;;;5.30;4.00;;;;;;;;;;109330;1256;58572;-80
2023/09/24 09:12:20;;;;;;;5.40;3.90;;;;;;;;;;109289;1254;58288;-80
2023/09/24 09:14:46;;;;;;;5.30;4.30;;;;;;;;;;109337;1252;58244;-80
2023/09/24 09:17:13;;;;;;;6.40;4.80;;;;;;;;;;109242;1256;58654;-80
2023/09/24 09:19:48;;;;;;;5.00;3.90;;;;;;;;;;109353;1253;58385;-80
2023/09/24 09:22:24;;;;;;;5.70;4.30;;;;;;;;;;109347;1253;60896;-81
2023/09/24 09:25:00;;;;;;;5.30;3.60;;;;;;;;;;109322;1254;58746;-80
2023/09/24 09:27:30;;;;;;;6.20;4.00;;;;;;;;;;109334;1252;58189;-80
2023/09/24 09:30:09;;;;;;;6.30;4.60;;;;;;;;;;109302;1254;61186;-81
2023/09/24 09:32:39;;;;;;;4.90;3.60;;;;;;;;;;109306;1254;58731;-80
2023/09/24 09:35:06;;;;;;;5.20;3.80;;;;;;;;;;109327;1255;59368;-81
2023/09/24 09:37:32;;;;;;;6.00;4.00;;;;;;;;;;109315;1254;58304;-81
2023/09/24 09:39:59;;;;;;;6.20;4.00;;;;;;;;;;109338;1254;58227;-80
2023/09/24 09:42:25;;;;;;;5.20;3.90;;;;;;;;;;109352;1253;58665;-81
2023/09/24 09:44:52;;;;;;;7.40;3.70;;;;;;;;;;109290;1254;58336;-80
2023/09/24 09:47:20;;;;;;;6.20;4.30;;;;;;;;;;109386;1251;59542;-80
2023/09/24 09:49:48;;;;;;;5.20;4.00;;;;;;;;;;109252;1253;58826;-80
2023/09/24 09:52:15;;;;;;;3.40;3.00;;;;;;;;;;109292;1252;58820;-80
2023/09/24 09:54:42;;;;;;;5.00;3.10;;;;;;;;;;109284;1254;62125;-81
2023/09/24 09:57:08;;;;;;;3.30;2.70;;;;;;;;;;109244;1253;58806;-81
2023/09/24 09:59:35;;;;;;;5.50;4.50;;;;;;;;;;109233;1254;59387;-81
2023/09/24 10:02:01;;;;;;;4.00;3.50;;;;;;;;;;109277;1254;58286;-81
2023/09/24 10:04:30;;;;;;;9.20;6.70;;;;;;;;;;109254;1251;58673;-80
2023/09/24 10:06:56;;;;;;;7.00;5.00;;;;;;;;;;109334;1254;61717;-81
2023/09/24 10:09:26;;;;;;;7.80;4.50;;;;;;;;;;109283;1254;58738;-80
2023/09/24 10:11:53;;;;;;;5.00;3.90;;;;;;;;;;109302;1253;59761;-81
2023/09/24 10:14:38;;;;;;;4.30;3.60;;;;;;;;;;109152;1254;58575;-81
2023/09/24 10:17:23;;;;;;;4.40;3.40;;;;;;;;;;109325;1253;58517;-81
2023/09/24 10:19:53;;;;;;;6.50;4.60;;;;;;;;;;109353;1253;62350;-81
2023/09/24 10:22:26;;;;;;;5.40;3.60;;;;;;;;;;109350;1253;58315;-80
2023/09/24 10:24:52;;;;;;;6.80;4.40;;;;;;;;;;109327;1254;59512;-80
2023/09/24 10:27:29;;;;;;;6.40;4.50;;;;;;;;;;109328;1254;58572;-81
2023/09/24 10:29:56;;;;;;;7.70;4.70;;;;;;;;;;109351;1253;58754;-81
2023/09/24 10:32:23;;;;;;;6.10;4.70;;;;;;;;;;109341;1254;58301;-80
2023/09/24 10:34:56;;;;;;;16.10;9.80;;;;;;;;;;109340;1253;58721;-80
2023/09/24 10:37:34;;;;;;;6.80;5.20;;;;;;;;;;109340;1254;58475;-80
2023/09/24 10:42:27;;;;;;;5.00;4.30;;;;;;;;;;109304;1253;59054;-81
2023/09/24 10:45:06;;;;;;;10.10;8.30;;;;;;;;;;109289;1252;62240;-80
2023/09/24 10:47:35;;;;;;;207.60;137.20;;;;;;;;;;109117;1253;58380;-80
2023/09/24 10:50:03;;;;;;;313.70;186.00;;;;;;;;;;109300;1253;58418;-80
2023/09/24 10:52:48;;;;;;;1999.90;999.90;;;;;;;;;;109259;1252;58213;-81
2023/09/24 10:55:15;;;;;;;276.80;201.10;;;;;;;;;;109284;1254;58811;-81
2023/09/24 10:57:45;;;;;;;19.80;14.10;;;;;;;;;;109316;1254;62006;-80
2023/09/24 11:00:18;;;;;;;11.50;10.20;;;;;;;;;;109277;1254;59448;-80
2023/09/24 11:02:44;;;;;;;21.40;18.80;;;;;;;;;;109276;1254;59840;-81
2023/09/24 11:05:11;;;;;;;20.20;18.00;;;;;;;;;;109173;1257;58792;-81
2023/09/24 11:07:37;;;;;;;7.90;7.10;;;;;;;;;;109225;1254;58259;-80
2023/09/24 11:10:04;;;;;;;4.10;3.50;;;;;;;;;;109228;1253;58978;-80
2023/09/24 11:12:31;;;;;;;14.50;12.60;;;;;;;;;;109213;1254;58263;-81
2023/09/24 11:14:57;;;;;;;6.20;4.80;;;;;;;;;;109078;1254;60418;-80
2023/09/24 11:17:24;;;;;;;31.10;27.90;;;;;;;;;;109168;1254;58160;-80
2023/09/24 11:19:50;;;;;;;128.00;114.50;;;;;;;;;;109089;1254;58371;-80
2023/09/24 11:22:26;;;;;;;118.90;107.40;;;;;;;;;;109215;1254;58797;-80
2023/09/24 11:25:13;;;;;;;122.70;110.80;;;;;;;;;;109226;1254;58266;-80
2023/09/24 11:27:49;;;;;;;56.50;51.00;;;;;;;;;;109191;1253;58298;-81
2023/09/24 11:30:16;;;;;;;19.60;17.70;;;;;;;;;;109185;1254;58749;-81
2023/09/24 11:32:45;;;;;;;23.00;20.70;;;;;;;;;;109213;1254;58233;-80
2023/09/24 11:35:12;;;;;;;16.50;14.70;;;;;;;;;;109127;1253;61329;-80
2023/09/24 11:37:48;;;;;;;5.60;3.50;;;;;;;;;;109193;1254;59019;-81
2023/09/24 11:40:21;;;;;;;151.40;97.40;;;;;;;;;;109231;1253;58259;-80
2023/09/24 11:42:49;;;;;;;27.20;24.10;;;;;;;;;;109178;1254;58855;-81
2023/09/24 11:45:16;;;;;;;6.90;5.50;;;;;;;;;;109278;1251;58854;-80
2023/09/24 11:47:43;;;;;;;21.60;19.40;;;;;;;;;;109416;1251;62101;-80
2023/09/24 11:50:09;;;;;;;34.40;31.10;;;;;;;;;;109314;1252;58544;-80
2023/09/24 11:52:38;;;;;;;25.70;23.10;;;;;;;;;;109272;1253;60588;-81
2023/09/24 11:55:05;;;;;;;10.30;9.20;;;;;;;;;;109257;1252;58949;-81
2023/09/24 11:57:31;;;;;;;20.70;18.00;;;;;;;;;;109296;1253;58271;-81
2023/09/24 11:59:58;;;;;;;280.50;197.70;;;;;;;;;;109307;1254;58281;-80
2023/09/24 12:02:24;;;;;;;53.60;46.90;;;;;;;;;;109286;1253;58477;-81
2023/09/24 12:04:50;;;;;;;26.40;23.80;;;;;;;;;;109328;1253;58610;-80
2023/09/24 12:07:17;;;;;;;9.70;8.10;;;;;;;;;;109362;1253;58765;-81
2023/09/24 12:09:43;;;;;;;11.30;10.00;;;;;;;;;;109376;1252;58516;-80
2023/09/24 12:12:09;;;;;;;5.80;4.30;;;;;;;;;;109340;1252;58823;-80
2023/09/24 12:14:36;;;;;;;7.70;7.00;;;;;;;;;;109340;1254;59109;-81
2023/09/24 12:17:02;;;;;;;8.80;6.40;;;;;;;;;;109314;1254;58583;-81
2023/09/24 12:19:29;;;;;;;8.60;5.30;;;;;;;;;;109357;1252;58823;-80
2023/09/24 12:21:55;;;;;;;5.00;4.10;;;;;;;;;;109307;1254;58570;-80
2023/09/24 12:24:21;;;;;;;4.90;3.00;;;;;;;;;;109375;1253;58575;-81
2023/09/24 12:26:48;;;;;;;5.00;3.30;;;;;;;;;;109252;1253;58874;-81
2023/09/24 12:29:14;;;;;;;4.70;3.20;;;;;;;;;;109302;1254;58510;-80
2023/09/24 12:31:40;;;;;;;12.50;8.50;;;;;;;;;;109332;1253;58810;-81
2023/09/24 12:34:07;;;;;;;6.20;3.50;;;;;;;;;;109343;1254;58941;-81
2023/09/24 12:36:33;;;;;;;12.90;9.20;;;;;;;;;;109355;1254;58775;-81
2023/09/24 12:38:59;;;;;;;5.50;3.30;;;;;;;;;;109345;1252;58903;-81
2023/09/24 12:41:26;;;;;;;4.30;2.80;;;;;;;;;;109343;1253;58491;-81
2023/09/24 12:43:53;;;;;;;4.10;3.30;;;;;;;;;;109321;1253;58549;-80
2023/09/24 12:46:19;;;;;;;15.10;12.20;;;;;;;;;;109419;1251;58877;-81
2023/09/24 12:48:46;;;;;;;10.40;6.30;;;;;;;;;;109382;1253;58769;-81
2023/09/24 12:51:12;;;;;;;15.20;11.10;;;;;;;;;;109320;1252;58866;-80
2023/09/24 12:53:41;;;;;;;7.00;3.60;;;;;;;;;;109295;1252;58870;-81
2023/09/24 12:56:08;;;;;;;12.20;10.60;;;;;;;;;;109303;1252;58439;-80
2023/09/24 12:58:34;;;;;;;15.70;13.20;;;;;;;;;;109315;1252;58585;-80
2023/09/24 13:01:01;;;;;;;13.50;10.90;;;;;;;;;;109298;1252;60804;-82
2023/09/24 13:03:27;;;;;;;8.70;5.20;;;;;;;;;;109332;1252;58212;-81
2023/09/24 13:05:54;;;;;;;11.80;9.10;;;;;;;;;;109329;1253;58373;-80
2023/09/24 13:08:20;;;;;;;8.60;5.20;;;;;;;;;;109306;1254;58211;-81
2023/09/24 13:10:46;;;;;;;12.00;8.00;;;;;;;;;;109379;1253;58898;-81
2023/09/24 13:13:13;;;;;;;17.20;9.80;;;;;;;;;;109200;1252;167930;-81
2023/09/24 13:15:39;;;;;;;17.10;6.10;;;;;;;;;;109391;1253;58913;-81
2023/09/24 13:18:06;;;;;;;11.00;5.70;;;;;;;;;;109335;1252;58297;-81
2023/09/24 13:20:33;;;;;;;5.90;3.90;;;;;;;;;;109343;1252;58281;-80
2023/09/24 13:22:59;;;;;;;15.30;5.20;;;;;;;;;;109343;1251;59020;-81
2023/09/24 13:25:26;;;;;;;10.20;4.00;;;;;;;;;;109363;1252;58997;-81
2023/09/24 13:27:52;;;;;;;9.30;4.10;;;;;;;;;;109334;1253;58136;-80
2023/09/24 13:30:18;;;;;;;10.70;5.70;;;;;;;;;;109344;1252;58757;-80
2023/09/24 13:32:45;;;;;;;8.40;5.30;;;;;;;;;;109353;1252;58654;-81
2023/09/24 13:35:12;;;;;;;7.00;4.30;;;;;;;;;;109369;1252;58269;-81
2023/09/24 13:37:39;;;;;;;5.50;3.70;;;;;;;;;;109362;1252;58532;-81
2023/09/24 13:40:06;;;;;;;10.10;4.90;;;;;;;;;;109357;1253;58474;-80
2023/09/24 13:42:33;;;;;;;13.00;7.30;;;;;;;;;;109288;1252;59475;-81
2023/09/24 13:45:00;;;;;;;8.50;5.40;;;;;;;;;;109350;1253;58715;-81
2023/09/24 13:47:27;;;;;;;6.50;4.60;;;;;;;;;;109430;1251;58204;-81
2023/09/24 13:49:53;;;;;;;9.30;6.30;;;;;;;;;;109362;1252;58554;-81
2023/09/24 13:52:19;;;;;;;6.60;4.40;;;;;;;;;;109336;1252;59001;-81
2023/09/24 13:54:46;;;;;;;6.40;4.20;;;;;;;;;;109298;1253;58441;-80
2023/09/24 13:57:12;;;;;;;6.40;3.90;;;;;;;;;;109284;1252;58224;-80
2023/09/24 13:59:38;;;;;;;6.70;3.90;;;;;;;;;;109331;1252;58492;-81
2023/09/24 14:02:05;;;;;;;6.10;3.40;;;;;;;;;;109307;1252;58727;-81
2023/09/24 14:04:32;;;;;;;4.20;3.40;;;;;;;;;;109302;1252;58514;-81
2023/09/24 14:06:58;;;;;;;7.70;4.70;;;;;;;;;;109382;1253;58246;-80
2023/09/24 14:12:22;;;;;;;18.30;11.10;;;;;;;;;;109270;1253;58904;-81
2023/09/24 14:14:49;;;;;;;7.40;5.50;;;;;;;;;;109390;1253;59700;-80